createdAt,value
2018-11-20T00:02:00.293Z,2.93
2018-11-20T00:04:37.858Z,2.94
2018-11-20T00:07:31.415Z,2.94
2018-11-20T00:10:08.023Z,2.93
2018-11-20T00:14:44.495Z,2.95
2018-11-20T00:19:21.149Z,2.97
2018-11-20T00:22:03.716Z,2.98
2018-11-20T00:24:39.071Z,3.00
2018-11-20T00:27:16.423Z,3.00
2018-11-20T00:30:03.881Z,2.99
2018-11-20T00:32:37.434Z,3.00
2018-11-20T00:37:17.735Z,3.00
2018-11-20T00:39:51.277Z,3.00
2018-11-20T00:42:28.073Z,2.98
2018-11-20T00:45:01.617Z,2.98
2018-11-20T00:47:38.116Z,2.97
2018-11-20T00:51:19.054Z,2.98
2018-11-20T00:54:03.509Z,2.95
2018-11-20T00:57:16.822Z,2.94
2018-11-20T00:59:53.085Z,2.90
2018-11-20T01:02:35.157Z,2.88
2018-11-20T01:05:09.557Z,2.87
2018-11-20T01:07:43.171Z,2.84
2018-11-20T01:10:16.883Z,2.82
2018-11-20T01:12:50.593Z,2.82
2018-11-20T01:15:24.182Z,2.78
2018-11-20T01:17:56.767Z,2.75
2018-11-20T01:20:31.332Z,2.73
2018-11-20T01:23:04.999Z,2.71
2018-11-20T01:25:38.777Z,2.69
2018-11-20T01:29:14.470Z,2.69
2018-11-20T01:31:47.983Z,2.66
2018-11-20T01:34:52.368Z,2.65
2018-11-20T01:37:26.869Z,2.63
2018-11-20T01:40:02.441Z,2.62
2018-11-20T01:42:35.948Z,2.61
2018-11-20T01:45:09.513Z,2.59
2018-11-20T01:48:45.001Z,2.56
2018-11-20T01:51:21.588Z,2.55
2018-11-20T01:54:14.206Z,2.55
2018-11-20T01:56:47.809Z,2.53
2018-11-20T02:01:22.454Z,2.53
2018-11-20T02:05:57.801Z,2.52
2018-11-20T02:08:38.353Z,2.51
2018-11-20T02:11:10.938Z,2.52
2018-11-20T02:15:50.263Z,2.49
2018-11-20T02:18:26.722Z,2.48
2018-11-20T02:21:02.921Z,2.47
2018-11-20T02:23:42.435Z,2.45
2018-11-20T02:26:19.032Z,2.46
2018-11-20T02:28:52.565Z,2.45
2018-11-20T02:31:26.755Z,2.46
2018-11-20T02:34:30.136Z,2.45
2018-11-20T02:37:13.583Z,2.44
2018-11-20T02:39:47.243Z,2.45
2018-11-20T02:42:20.651Z,2.44
2018-11-20T02:44:56.216Z,2.42
2018-11-20T02:47:30.077Z,2.44
2018-11-20T02:50:02.661Z,2.44
2018-11-20T02:52:35.239Z,2.40
2018-11-20T02:55:10.982Z,2.37
2018-11-20T02:57:46.483Z,2.36
2018-11-20T03:00:20.183Z,2.38
2018-11-20T03:02:53.815Z,2.36
2018-11-20T03:05:31.183Z,2.32
2018-11-20T03:08:06.653Z,2.30
2018-11-20T03:10:40.276Z,2.30
2018-11-20T03:13:14.005Z,2.24
2018-11-20T03:15:50.517Z,2.23
2018-11-20T03:18:25.928Z,2.24
2018-11-20T03:20:58.495Z,2.23
2018-11-20T03:23:35.876Z,2.25
2018-11-20T03:26:12.875Z,2.28
2018-11-20T03:30:52.946Z,2.28
2018-11-20T03:33:28.389Z,2.28
2018-11-20T03:36:04.795Z,2.30
2018-11-20T03:39:12.364Z,2.32
2018-11-20T03:41:46.089Z,2.33
2018-11-20T03:44:24.691Z,2.33
2018-11-20T03:46:58.206Z,2.34
2018-11-20T03:49:31.811Z,2.37
2018-11-20T03:52:05.247Z,2.39
2018-11-20T03:56:39.708Z,2.39
2018-11-20T03:59:17.743Z,2.43
2018-11-20T04:03:52.400Z,2.44
2018-11-20T04:06:44.812Z,2.45
2018-11-20T04:09:18.506Z,2.48
2018-11-20T04:13:56.191Z,2.50
2018-11-20T04:17:31.669Z,2.54
2018-11-20T04:20:05.424Z,2.58
2018-11-20T04:22:41.170Z,2.59
2018-11-20T04:25:29.795Z,2.62
2018-11-20T04:28:03.358Z,2.63
2018-11-20T04:30:47.942Z,2.64
2018-11-20T04:33:34.431Z,2.67
2018-11-20T04:36:08.130Z,2.70
2018-11-20T04:38:43.564Z,2.73
2018-11-20T04:41:22.176Z,2.75
2018-11-20T04:44:30.831Z,2.75
2018-11-20T04:47:03.462Z,2.77
2018-11-20T04:49:44.006Z,2.79
2018-11-20T04:52:32.406Z,2.80
2018-11-20T04:55:12.695Z,2.82
2018-11-20T04:58:16.167Z,2.82
2018-11-20T05:01:47.613Z,2.82
2018-11-20T05:06:25.922Z,2.86
2018-11-20T05:10:03.366Z,2.90
2018-11-20T05:13:38.883Z,2.88
2018-11-20T05:16:26.354Z,2.93
2018-11-20T05:18:59.953Z,2.93
2018-11-20T05:21:33.423Z,2.96
2018-11-20T05:24:06.966Z,2.98
2018-11-20T05:26:45.493Z,3.00
2018-11-20T05:29:25.763Z,2.99
2018-11-20T05:31:59.350Z,2.99
2018-11-20T05:34:38.910Z,3.00
2018-11-20T05:37:12.433Z,3.00
2018-11-20T05:39:55.766Z,2.99
2018-11-20T05:42:31.258Z,2.98
2018-11-20T05:46:04.792Z,2.99
2018-11-20T05:50:44.185Z,3.00
2018-11-20T05:55:20.593Z,3.00
2018-11-20T05:59:55.241Z,3.01
2018-11-20T06:02:28.948Z,3.03
2018-11-20T06:05:01.487Z,3.04
2018-11-20T06:07:35.091Z,3.06
2018-11-20T06:10:08.817Z,3.05
2018-11-20T06:12:42.502Z,3.05
2018-11-20T06:17:17.153Z,3.05
2018-11-20T06:19:50.673Z,3.05
2018-11-20T06:22:24.111Z,3.06
2018-11-20T06:24:57.846Z,3.06
2018-11-20T06:28:04.292Z,3.05
2018-11-20T06:30:38.031Z,3.04
2018-11-20T06:33:22.416Z,3.03
2018-11-20T06:35:56.525Z,3.01
2018-11-20T06:38:30.667Z,3.01
2018-11-20T06:43:07.652Z,3.01
2018-11-20T06:45:43.186Z,3.01
2018-11-20T06:48:21.720Z,3.01
2018-11-20T06:51:03.492Z,3.01
2018-11-20T06:53:55.174Z,3.03
2018-11-20T06:56:31.572Z,3.06
2018-11-20T06:59:07.814Z,3.07
2018-11-20T07:01:47.754Z,3.08
2018-11-20T07:04:21.473Z,3.12
2018-11-20T07:06:56.745Z,3.14
2018-11-20T07:10:36.304Z,3.12
2018-11-20T07:13:23.090Z,3.13
2018-11-20T07:16:35.670Z,3.13
2018-11-20T07:19:11.028Z,3.13
2018-11-20T07:21:51.727Z,3.14
2018-11-20T07:24:29.119Z,3.13
2018-11-20T07:27:06.622Z,3.14
2018-11-20T07:29:43.409Z,3.15
2018-11-20T07:32:17.078Z,3.17
2018-11-20T07:34:55.681Z,3.18
2018-11-20T07:37:34.597Z,3.19
2018-11-20T07:40:10.135Z,3.21
2018-11-20T07:42:43.812Z,3.20
2018-11-20T07:47:18.519Z,3.21
2018-11-20T07:50:55.195Z,3.23
2018-11-20T07:53:42.745Z,3.25
2018-11-20T07:58:20.182Z,3.27
2018-11-20T08:00:53.879Z,3.26
2018-11-20T08:03:32.413Z,3.27
2018-11-20T08:06:06.012Z,3.26
2018-11-20T08:10:40.595Z,3.26
2018-11-20T08:13:22.165Z,3.27
2018-11-20T08:15:55.787Z,3.28
2018-11-20T08:18:29.312Z,3.29
2018-11-20T08:21:11.797Z,3.29
2018-11-20T08:25:46.878Z,3.33
2018-11-20T08:28:20.464Z,3.35
2018-11-20T08:30:54.412Z,3.37
2018-11-20T08:33:27.747Z,3.38
2018-11-20T08:38:03.730Z,3.40
2018-11-20T08:42:40.268Z,3.44
2018-11-20T08:45:13.901Z,3.46
2018-11-20T08:47:57.471Z,3.48
2018-11-20T08:52:31.898Z,3.48
2018-11-20T08:55:05.589Z,3.51
2018-11-20T08:59:41.124Z,3.53
2018-11-20T09:02:15.289Z,3.55
2018-11-20T09:05:04.608Z,3.56
2018-11-20T09:09:40.226Z,3.58
2018-11-20T09:12:13.788Z,3.60
2018-11-20T09:16:53.345Z,3.61
2018-11-20T09:19:59.759Z,3.63
2018-11-20T09:22:48.035Z,3.62
2018-11-20T09:25:21.551Z,3.64
2018-11-20T09:28:15.041Z,3.65
2018-11-20T09:32:51.690Z,3.64
2018-11-20T09:35:27.335Z,3.69
2018-11-20T09:38:04.767Z,3.68
2018-11-20T09:40:46.673Z,3.67
2018-11-20T09:43:20.512Z,3.68
2018-11-20T09:46:02.970Z,3.70
2018-11-20T09:48:38.433Z,3.72
2018-11-20T09:51:17.825Z,3.72
2018-11-20T09:53:50.417Z,3.74
2018-11-20T09:56:26.602Z,3.76
2018-11-20T09:59:07.152Z,3.79
2018-11-20T10:03:46.485Z,3.79
2018-11-20T10:06:25.864Z,3.81
2018-11-20T10:08:59.486Z,3.84
2018-11-20T10:11:33.032Z,3.85
2018-11-20T10:14:15.706Z,3.90
2018-11-20T10:16:49.067Z,3.91
2018-11-20T10:19:22.815Z,3.92
2018-11-20T10:21:56.357Z,3.93
2018-11-20T10:26:36.307Z,3.96
2018-11-20T10:31:20.823Z,3.99
2018-11-20T10:33:54.503Z,4.00
2018-11-20T10:36:36.005Z,4.02
2018-11-20T10:41:14.520Z,4.03
2018-11-20T10:43:50.969Z,4.03
2018-11-20T10:46:25.431Z,4.05
2018-11-20T10:49:10.020Z,4.06
2018-11-20T10:51:45.448Z,4.07
2018-11-20T10:54:54.078Z,4.09
2018-11-20T10:57:27.976Z,4.10
2018-11-20T11:00:01.576Z,4.10
2018-11-20T11:02:35.172Z,4.11
2018-11-20T11:05:08.909Z,4.13
2018-11-20T11:07:42.689Z,4.15
2018-11-20T11:10:16.569Z,4.16
2018-11-20T11:12:54.053Z,4.18
2018-11-20T11:15:32.668Z,4.24
2018-11-20T11:20:09.435Z,4.25
2018-11-20T11:22:44.939Z,4.28
2018-11-20T11:27:21.552Z,4.29
2018-11-20T11:29:55.486Z,4.28
2018-11-20T11:32:34.954Z,4.29
2018-11-20T11:35:10.583Z,4.31
2018-11-20T11:38:48.329Z,4.31
2018-11-20T11:43:28.218Z,4.33
2018-11-20T11:48:05.847Z,4.34
2018-11-20T11:50:39.563Z,4.35
2018-11-20T11:53:13.134Z,4.37
2018-11-20T11:57:10.336Z,4.42
2018-11-20T12:00:14.248Z,4.39
2018-11-20T12:03:17.213Z,4.39
2018-11-20T12:06:11.202Z,4.41
2018-11-20T12:09:00.727Z,4.42
2018-11-20T12:11:48.933Z,4.42
2018-11-20T12:14:35.424Z,4.45
2018-11-20T12:17:26.814Z,4.49
2018-11-20T12:20:21.249Z,4.52
2018-11-20T12:23:14.807Z,4.54
2018-11-20T12:26:06.832Z,4.53
2018-11-20T12:28:46.458Z,4.56
2018-11-20T12:31:40.986Z,4.54
2018-11-20T12:34:39.807Z,4.56
2018-11-20T12:37:34.741Z,4.54
2018-11-20T12:40:38.268Z,4.55
2018-11-20T12:43:24.748Z,4.56
2018-11-20T12:46:26.907Z,4.55
2018-11-20T12:49:33.679Z,4.55
2018-11-20T12:52:33.474Z,4.57
2018-11-20T12:55:24.221Z,4.59
2018-11-20T12:58:16.160Z,4.59
2018-11-20T13:00:58.980Z,4.61
2018-11-20T13:03:43.701Z,4.60
2018-11-20T13:06:34.975Z,4.62
2018-11-20T13:09:21.624Z,4.59
2018-11-20T13:12:18.161Z,4.59
2018-11-20T13:15:08.863Z,4.58
2018-11-20T13:18:00.473Z,4.59
2018-11-20T13:21:03.755Z,4.61
2018-11-20T13:23:51.135Z,4.12
2018-11-20T13:26:41.125Z,4.61
2018-11-20T13:29:28.153Z,4.60
2018-11-20T13:32:15.390Z,4.60
2018-11-20T13:35:02.706Z,4.58
2018-11-20T13:37:41.912Z,4.56
2018-11-20T13:41:15.365Z,4.53
2018-11-20T13:44:03.679Z,4.52
2018-11-20T13:46:52.446Z,4.53
2018-11-20T13:49:40.748Z,4.51
2018-11-20T13:52:22.568Z,4.53
2018-11-20T13:55:09.224Z,4.52
2018-11-20T13:57:55.666Z,4.50
2018-11-20T14:00:47.731Z,4.49
2018-11-20T14:03:47.894Z,4.49
2018-11-20T14:06:36.297Z,4.50
2018-11-20T14:09:25.121Z,4.48
2018-11-20T14:12:16.317Z,4.45
2018-11-20T14:15:02.683Z,4.42
2018-11-20T14:17:49.798Z,4.41
2018-11-20T14:20:40.805Z,4.41
2018-11-20T14:23:28.729Z,4.40
2018-11-20T14:26:17.873Z,4.40
2018-11-20T14:29:15.946Z,4.39
2018-11-20T14:32:03.337Z,4.39
2018-11-20T14:35:09.772Z,4.39
2018-11-20T14:38:07.286Z,4.38
2018-11-20T14:41:04.569Z,4.39
2018-11-20T14:43:51.807Z,4.40
2018-11-20T14:46:47.267Z,4.41
2018-11-20T14:49:44.856Z,4.41
2018-11-20T14:52:33.275Z,4.40
2018-11-20T14:55:28.066Z,4.40
2018-11-20T14:58:03.360Z,4.39
2018-11-20T15:01:04.687Z,4.38
2018-11-20T15:03:54.839Z,4.38
2018-11-20T15:06:43.495Z,4.36
2018-11-20T15:09:41.165Z,4.36
2018-11-20T15:12:28.141Z,4.35
2018-11-20T15:15:15.880Z,4.34
2018-11-20T15:18:07.201Z,4.33
2018-11-20T15:21:03.686Z,4.34
2018-11-20T15:23:50.826Z,4.32
2018-11-20T15:26:42.838Z,4.33
2018-11-20T15:29:31.488Z,4.34
2018-11-20T15:32:25.227Z,4.34
2018-11-20T15:35:31.721Z,4.33
2018-11-20T15:38:26.268Z,4.32
2018-11-20T15:41:13.137Z,4.32
2018-11-20T15:44:04.781Z,4.32
2018-11-20T15:47:02.535Z,4.32
2018-11-20T15:49:45.532Z,4.32
2018-11-20T15:52:37.732Z,4.31
2018-11-20T15:55:36.319Z,4.31
2018-11-20T15:58:28.226Z,4.29
2018-11-20T16:01:25.999Z,4.30
2018-11-20T16:04:16.919Z,4.29
2018-11-20T16:07:04.114Z,4.29
2018-11-20T16:09:41.005Z,4.29
2018-11-20T16:12:31.893Z,4.30
2018-11-20T16:15:31.786Z,4.30
2018-11-20T16:18:22.449Z,4.31
2018-11-20T16:21:20.010Z,4.30
2018-11-20T16:24:11.631Z,4.31
2018-11-20T16:27:14.877Z,4.30
2018-11-20T16:30:04.186Z,4.30
2018-11-20T16:32:50.952Z,4.33
2018-11-20T16:35:37.853Z,4.32
2018-11-20T16:38:38.413Z,4.32
2018-11-20T16:41:29.162Z,4.30
2018-11-20T16:44:20.186Z,4.29
2018-11-20T16:47:07.531Z,4.33
2018-11-20T16:49:48.825Z,4.33
2018-11-20T16:52:47.215Z,4.31
2018-11-20T16:55:35.901Z,4.30
2018-11-20T16:58:33.150Z,4.32
2018-11-20T17:01:17.133Z,4.31
2018-11-20T17:04:00.428Z,4.04
2018-11-20T17:06:46.445Z,4.32
2018-11-20T17:09:41.846Z,4.31
2018-11-20T17:12:31.540Z,4.29
2018-11-20T17:15:29.160Z,4.28
2018-11-20T17:18:07.727Z,4.29
2018-11-20T17:21:02.858Z,4.28
2018-11-20T17:23:50.070Z,4.27
2018-11-20T17:26:38.678Z,4.26
2018-11-20T17:29:32.619Z,4.26
2018-11-20T17:32:33.711Z,4.25
2018-11-20T17:35:21.528Z,4.23
2018-11-20T17:38:09.816Z,4.22
2018-11-20T17:40:50.982Z,4.23
2018-11-20T17:43:37.787Z,4.21
2018-11-20T17:46:20.579Z,4.22
2018-11-20T17:49:08.501Z,4.22
2018-11-20T17:51:56.220Z,4.21
2018-11-20T17:54:41.147Z,4.21
2018-11-20T17:57:27.735Z,4.22
2018-11-20T18:00:18.755Z,4.22
2018-11-20T18:02:58.283Z,4.22
2018-11-20T18:05:58.548Z,4.22
2018-11-20T18:08:45.260Z,4.21
2018-11-20T18:11:40.170Z,4.22
2018-11-20T18:14:28.972Z,4.19
2018-11-20T18:17:10.103Z,4.18
2018-11-20T18:19:57.983Z,4.15
2018-11-20T18:22:46.146Z,4.16
2018-11-20T18:25:49.458Z,4.17
2018-11-20T18:28:38.199Z,4.17
2018-11-20T18:31:35.710Z,4.15
2018-11-20T18:34:22.792Z,4.14
2018-11-20T18:37:13.366Z,4.15
2018-11-20T18:40:12.865Z,4.14
2018-11-20T18:43:13.594Z,4.14
2018-11-20T18:46:00.373Z,4.14
2018-11-20T18:48:54.975Z,4.10
2018-11-20T18:51:44.352Z,4.13
2018-11-20T18:54:35.353Z,4.14
2018-11-20T18:57:23.070Z,4.13
2018-11-20T19:00:30.324Z,4.13
2018-11-20T19:03:18.205Z,4.13
2018-11-20T19:06:12.970Z,4.12
2018-11-20T19:09:19.963Z,4.12
2018-11-20T19:12:24.983Z,4.12
2018-11-20T19:15:19.304Z,4.12
2018-11-20T19:18:05.883Z,4.11
2018-11-20T19:20:44.785Z,4.09
2018-11-20T19:23:34.018Z,4.09
2018-11-20T19:26:40.543Z,4.09
2018-11-20T19:29:27.465Z,4.10
2018-11-20T19:32:09.605Z,4.11
2018-11-20T19:35:17.179Z,4.11
2018-11-20T19:38:01.653Z,4.11
2018-11-20T19:40:55.469Z,4.11
2018-11-20T19:43:43.585Z,4.12
2018-11-20T19:46:30.572Z,4.11
2018-11-20T19:49:18.178Z,4.09
2018-11-20T19:52:18.954Z,4.09
2018-11-20T19:55:17.343Z,4.09
2018-11-20T19:58:16.657Z,4.06
2018-11-20T20:01:12.859Z,4.06
2018-11-20T20:03:59.665Z,4.07
2018-11-20T20:06:57.772Z,4.05
2018-11-20T20:09:44.752Z,4.03
2018-11-20T20:12:38.946Z,3.99
2018-11-20T20:15:30.432Z,3.91
2018-11-20T20:18:18.087Z,3.85
2018-11-20T20:21:05.723Z,3.80
2018-11-20T20:23:52.073Z,3.75
2018-11-20T20:26:58.373Z,3.70
2018-11-20T20:29:42.667Z,3.66
2018-11-20T20:32:48.999Z,3.65
2018-11-20T20:35:38.800Z,3.62
2018-11-20T20:38:33.491Z,3.61
2018-11-20T20:41:25.822Z,3.57
2018-11-20T20:44:12.672Z,3.54
2018-11-20T20:47:16.334Z,3.53
2018-11-20T20:50:07.995Z,3.49
2018-11-20T20:53:15.862Z,3.48
2018-11-20T20:56:02.336Z,3.48
2018-11-20T20:58:39.262Z,3.45
2018-11-20T21:01:27.906Z,3.45
2018-11-20T21:04:16.635Z,3.44
2018-11-20T21:07:04.247Z,3.43
2018-11-20T21:09:56.049Z,3.42
2018-11-20T21:12:43.269Z,3.41
2018-11-20T21:15:50.285Z,3.41
2018-11-20T21:18:32.025Z,3.39
2018-11-20T21:21:22.443Z,3.37
2018-11-20T21:24:17.171Z,3.37
2018-11-20T21:27:08.226Z,3.38
2018-11-20T21:29:55.024Z,3.39
2018-11-20T21:32:49.642Z,3.43
2018-11-20T21:35:36.356Z,3.46
2018-11-20T21:38:23.630Z,3.46
2018-11-20T21:41:24.506Z,3.45
2018-11-20T21:44:28.318Z,3.43
2018-11-20T21:47:14.087Z,3.42
2018-11-20T21:50:00.867Z,3.42
2018-11-20T21:52:47.671Z,3.42
2018-11-20T21:55:34.127Z,3.42
2018-11-20T21:58:22.321Z,3.44
2018-11-20T22:01:23.250Z,3.48
2018-11-20T22:04:24.513Z,3.50
2018-11-20T22:10:18.058Z,3.56
2018-11-20T22:13:15.793Z,3.60
2018-11-20T22:20:07.761Z,3.65
2018-11-20T22:23:42.086Z,3.73
2018-11-20T22:26:45.333Z,3.78
2018-11-20T22:29:23.269Z,3.79
2018-11-20T22:32:34.532Z,3.84
2018-11-20T22:46:18.085Z,3.91
2018-11-20T22:49:21.309Z,3.89
2018-11-20T22:52:09.954Z,3.87
2018-11-20T22:55:02.886Z,3.89
2018-11-20T22:58:08.788Z,3.91
2018-11-20T23:03:25.939Z,3.92
2018-11-20T23:06:21.810Z,3.95
2018-11-20T23:08:51.338Z,3.94
2018-11-20T23:11:29.789Z,3.97
2018-11-20T23:16:34.309Z,3.98
2018-11-20T23:19:03.985Z,3.97
2018-11-20T23:21:33.496Z,3.97
2018-11-20T23:24:06.177Z,3.97
2018-11-20T23:26:41.283Z,3.97
2018-11-20T23:29:11.384Z,3.98
2018-11-20T23:31:41.353Z,3.98
2018-11-20T23:34:11.082Z,3.99
2018-11-20T23:36:44.838Z,3.99
2018-11-20T23:39:16.914Z,3.95
2018-11-20T23:41:46.445Z,3.99
2018-11-20T23:44:16.263Z,4.00
2018-11-20T23:46:45.802Z,4.00
2018-11-20T23:49:15.784Z,4.00
2018-11-20T23:51:45.973Z,3.99
2018-11-20T23:54:14.480Z,3.98
2018-11-20T23:56:44.066Z,3.97
2018-11-20T23:59:13.305Z,3.93
